Time;durP1;ratioP1;P1;durP2;ratioP2;P2;SDS_P1;SDS_P2;PMS_P1;PMS_P2;Temp;Humidity;BMP_temperature;BMP_pressure;BME280_temperature;BME280_humidity;BME280_pressure;Samples;Min_cycle;Max_cycle;Signal;HPM_P1;HPM_P2
2022/11/01 00:01:37;;;;;;;98.05;28.75;;;;;;;;;;4958872;28;20219;-43
2022/11/01 00:04:04;;;;;;;182.50;69.45;;;;;;;;;;4958839;28;20269;-43
2022/11/01 00:06:31;;;;;;;200.15;90.25;;;;;;;;;;4958694;28;20267;-43
2022/11/01 00:08:58;;;;;;;205.93;97.28;;;;;;;;;;4958746;28;20235;-44
2022/11/01 00:11:25;;;;;;;157.82;58.97;;;;;;;;;;4959087;28;20227;-43
2022/11/01 00:13:52;;;;;;;184.65;62.58;;;;;;;;;;4958930;28;20239;-43
2022/11/01 00:16:19;;;;;;;310.98;93.88;;;;;;;;;;4958840;28;20207;-45
2022/11/01 00:18:47;;;;;;;221.13;61.00;;;;;;;;;;4958378;29;20564;-43
2022/11/01 00:21:15;;;;;;;170.52;44.00;;;;;;;;;;4958462;28;20227;-44
2022/11/01 00:23:42;;;;;;;123.03;42.80;;;;;;;;;;4958580;29;20203;-42
2022/11/01 00:26:18;;;;;;;109.00;33.13;;;;;;;;;;4958655;28;20203;-45
2022/11/01 00:28:46;;;;;;;97.82;34.58;;;;;;;;;;4958699;28;20538;-44
2022/11/01 00:31:15;;;;;;;100.03;34.40;;;;;;;;;;4958296;28;20741;-43
2022/11/01 00:33:42;;;;;;;88.75;29.42;;;;;;;;;;4959070;28;20211;-44
2022/11/01 00:36:09;;;;;;;143.75;26.63;;;;;;;;;;4958427;28;20222;-43
2022/11/01 00:38:36;;;;;;;73.88;24.98;;;;;;;;;;4958713;29;20215;-43
2022/11/01 00:41:04;;;;;;;90.38;27.75;;;;;;;;;;4958344;29;20238;-43
2022/11/01 00:43:31;;;;;;;69.72;21.55;;;;;;;;;;4958132;29;20199;-44
2022/11/01 00:45:59;;;;;;;86.63;23.27;;;;;;;;;;4958014;29;20203;-43
2022/11/01 00:48:27;;;;;;;98.68;29.40;;;;;;;;;;4957978;28;20204;-43
2022/11/01 00:50:54;;;;;;;81.57;26.83;;;;;;;;;;4958076;29;20223;-43
2022/11/01 00:53:21;;;;;;;100.97;35.78;;;;;;;;;;4957747;29;20218;-44
2022/11/01 00:55:48;;;;;;;104.82;31.42;;;;;;;;;;4957116;29;20299;-45
2022/11/01 00:58:16;;;;;;;184.77;88.30;;;;;;;;;;4957959;28;20295;-42
2022/11/01 01:00:43;;;;;;;178.80;88.85;;;;;;;;;;4957995;28;20270;-42
2022/11/01 01:03:10;;;;;;;319.90;138.45;;;;;;;;;;4958043;28;20203;-43
2022/11/01 01:05:37;;;;;;;158.98;43.35;;;;;;;;;;4957865;29;20217;-44
2022/11/01 01:08:04;;;;;;;321.90;85.60;;;;;;;;;;4957817;29;20262;-43
2022/11/01 01:10:31;;;;;;;213.32;56.85;;;;;;;;;;4957833;28;20262;-44
2022/11/01 01:12:58;;;;;;;141.77;40.85;;;;;;;;;;4957741;28;20214;-43
2022/11/01 01:15:26;;;;;;;122.68;38.45;;;;;;;;;;4957753;28;20231;-43
2022/11/01 01:17:53;;;;;;;167.10;39.88;;;;;;;;;;4957708;28;20710;-43
2022/11/01 01:20:20;;;;;;;98.82;33.20;;;;;;;;;;4957607;29;20203;-42
2022/11/01 01:22:47;;;;;;;113.35;33.00;;;;;;;;;;4956419;29;20667;-43
2022/11/01 01:25:15;;;;;;;83.35;26.15;;;;;;;;;;4957455;28;20227;-43
2022/11/01 01:27:42;;;;;;;129.95;27.17;;;;;;;;;;4957211;28;20207;-42
2022/11/01 01:30:09;;;;;;;137.70;44.88;;;;;;;;;;4957260;28;20586;-43
2022/11/01 01:32:37;;;;;;;112.65;43.15;;;;;;;;;;4957185;29;20238;-42
2022/11/01 01:35:04;;;;;;;189.35;77.78;;;;;;;;;;4957218;28;20204;-43
2022/11/01 01:37:31;;;;;;;226.27;95.35;;;;;;;;;;4957179;29;20204;-43
2022/11/01 01:39:58;;;;;;;366.50;154.23;;;;;;;;;;4957245;29;20631;-42
2022/11/01 01:42:34;;;;;;;203.90;95.30;;;;;;;;;;4957460;29;20218;-42
2022/11/01 01:45:04;;;;;;;434.02;118.97;;;;;;;;;;4956868;29;20209;-43
2022/11/01 01:47:36;;;;;;;276.23;71.00;;;;;;;;;;4957517;29;20250;-44
2022/11/01 01:50:15;;;;;;;200.75;39.28;;;;;;;;;;4957142;29;20226;-43
2022/11/01 01:52:54;;;;;;;144.95;40.03;;;;;;;;;;4956808;29;20355;-42
2022/11/01 01:55:25;;;;;;;128.32;40.45;;;;;;;;;;4956827;29;20192;-43
2022/11/01 01:57:54;;;;;;;115.60;32.88;;;;;;;;;;4957282;28;20539;-43
2022/11/01 02:00:21;;;;;;;96.78;30.38;;;;;;;;;;4956271;28;20212;-43
2022/11/01 02:02:49;;;;;;;93.97;30.48;;;;;;;;;;4956886;28;20211;-42
2022/11/01 02:05:43;;;;;;;97.70;30.20;;;;;;;;;;4940650;29;20204;-43
2022/11/01 02:08:11;;;;;;;100.40;26.35;;;;;;;;;;4934392;29;20685;-42
2022/11/01 02:10:38;;;;;;;103.82;24.85;;;;;;;;;;4939827;29;20211;-43
2022/11/01 02:13:13;;;;;;;101.15;28.38;;;;;;;;;;4957037;29;20278;-42
2022/11/01 02:15:55;;;;;;;131.10;32.20;;;;;;;;;;4957701;29;20191;-45
2022/11/01 02:19:14;;;;;;;94.50;26.92;;;;;;;;;;4956816;29;20211;-42
2022/11/01 02:21:59;;;;;;;125.63;38.40;;;;;;;;;;4920512;28;20638;-46
2022/11/01 02:24:53;;;;;;;114.30;37.63;;;;;;;;;;4956440;29;20626;-41
2022/11/01 02:27:43;;;;;;;201.27;57.38;;;;;;;;;;4956709;29;20207;-42
2022/11/01 02:30:18;;;;;;;271.75;59.33;;;;;;;;;;4940743;29;20223;-42
2022/11/01 02:32:50;;;;;;;322.23;104.32;;;;;;;;;;4956878;29;20235;-43
2022/11/01 02:35:39;;;;;;;210.70;75.80;;;;;;;;;;4957010;29;20303;-43
2022/11/01 02:38:09;;;;;;;567.10;236.63;;;;;;;;;;4957024;29;20266;-42
2022/11/01 02:40:52;;;;;;;322.83;98.13;;;;;;;;;;4940134;29;20218;-44
2022/11/01 02:43:25;;;;;;;491.27;116.13;;;;;;;;;;4956728;28;20243;-43
2022/11/01 02:45:53;;;;;;;282.83;56.92;;;;;;;;;;4939722;29;20199;-42
2022/11/01 02:48:20;;;;;;;303.98;102.50;;;;;;;;;;4956221;29;20203;-43
2022/11/01 02:50:53;;;;;;;238.55;82.35;;;;;;;;;;4939583;29;20238;-44
2022/11/01 02:53:20;;;;;;;365.35;94.32;;;;;;;;;;4940467;29;20217;-46
2022/11/01 02:55:50;;;;;;;173.63;44.78;;;;;;;;;;4956168;29;20698;-43
2022/11/01 02:58:21;;;;;;;317.77;84.18;;;;;;;;;;4956795;29;20207;-44
2022/11/01 03:00:49;;;;;;;384.45;120.07;;;;;;;;;;4940041;29;20219;-45
2022/11/01 03:03:25;;;;;;;191.30;61.22;;;;;;;;;;4956191;29;20254;-45
2022/11/01 03:06:06;;;;;;;290.65;73.07;;;;;;;;;;4939562;29;20254;-43
2022/11/01 03:08:49;;;;;;;140.50;36.85;;;;;;;;;;4956230;29;20207;-42
2022/11/01 03:11:18;;;;;;;333.58;102.88;;;;;;;;;;4956026;28;20678;-43
2022/11/01 03:14:27;;;;;;;331.60;99.10;;;;;;;;;;4942835;29;20737;-44
2022/11/01 03:16:54;;;;;;;369.80;91.18;;;;;;;;;;4949892;29;20214;-45
2022/11/01 03:19:31;;;;;;;112.75;35.50;;;;;;;;;;4959831;29;20231;-43
2022/11/01 03:22:26;;;;;;;175.65;56.22;;;;;;;;;;4927560;29;20211;-42
2022/11/01 03:25:00;;;;;;;187.13;62.08;;;;;;;;;;4959813;28;20208;-43
2022/11/01 03:27:37;;;;;;;134.13;29.20;;;;;;;;;;4960047;29;20234;-44
2022/11/01 03:30:08;;;;;;;261.45;93.65;;;;;;;;;;4943016;29;20267;-43
2022/11/01 03:32:43;;;;;;;255.05;71.28;;;;;;;;;;4959561;29;20238;-43
2022/11/01 03:35:14;;;;;;;98.25;31.13;;;;;;;;;;4943264;29;20210;-43
2022/11/01 03:37:43;;;;;;;101.15;26.80;;;;;;;;;;4959335;29;20191;-42
2022/11/01 03:40:13;;;;;;;99.95;25.95;;;;;;;;;;4943611;29;20224;-42
2022/11/01 03:42:44;;;;;;;148.30;34.63;;;;;;;;;;4959362;29;20651;-44
2022/11/01 03:45:13;;;;;;;215.77;56.40;;;;;;;;;;4942510;29;20203;-43
2022/11/01 03:47:41;;;;;;;84.85;26.38;;;;;;;;;;4942758;29;20211;-45
2022/11/01 03:50:17;;;;;;;100.43;25.73;;;;;;;;;;4959226;29;20294;-42
2022/11/01 03:52:44;;;;;;;81.57;22.85;;;;;;;;;;4942379;29;20223;-44
2022/11/01 03:55:19;;;;;;;97.95;24.75;;;;;;;;;;4959104;29;20219;-44
2022/11/01 03:57:50;;;;;;;60.42;22.10;;;;;;;;;;4959325;29;20228;-44
2022/11/01 04:00:19;;;;;;;85.95;31.33;;;;;;;;;;4959268;29;20218;-43
2022/11/01 04:02:48;;;;;;;67.10;27.42;;;;;;;;;;4958740;29;20709;-43
2022/11/01 04:05:15;;;;;;;102.43;33.70;;;;;;;;;;4958908;29;20204;-44
2022/11/01 04:07:43;;;;;;;94.10;31.23;;;;;;;;;;4958935;29;20207;-42
2022/11/01 04:10:10;;;;;;;76.63;24.50;;;;;;;;;;4958844;29;20525;-42
2022/11/01 04:12:38;;;;;;;112.07;33.85;;;;;;;;;;4958771;29;20231;-42
2022/11/01 04:20:54;;;;;;;110.05;37.80;;;;;;;;;;4958438;29;20634;-45
2022/11/01 04:23:21;;;;;;;159.65;61.60;;;;;;;;;;4958441;28;20211;-44
2022/11/01 04:25:48;;;;;;;209.82;61.15;;;;;;;;;;4958627;29;20258;-43
2022/11/01 04:28:15;;;;;;;121.28;45.88;;;;;;;;;;4958726;28;20238;-43
2022/11/01 04:30:42;;;;;;;134.23;50.03;;;;;;;;;;4958513;29;20299;-42
2022/11/01 04:33:09;;;;;;;157.57;59.88;;;;;;;;;;4958087;29;20231;-43
2022/11/01 04:35:39;;;;;;;175.05;61.03;;;;;;;;;;4958420;29;20305;-43
2022/11/01 04:38:06;;;;;;;164.40;71.50;;;;;;;;;;4958177;29;20555;-43
2022/11/01 04:40:33;;;;;;;126.22;54.45;;;;;;;;;;4941772;29;20204;-43
2022/11/01 04:43:00;;;;;;;131.50;50.20;;;;;;;;;;4958222;29;20211;-45
2022/11/01 04:45:27;;;;;;;110.47;42.03;;;;;;;;;;4958127;29;20200;-42
2022/11/01 04:48:06;;;;;;;110.63;42.78;;;;;;;;;;4958282;29;20207;-43
2022/11/01 04:50:34;;;;;;;158.50;59.30;;;;;;;;;;4958077;29;20623;-43
2022/11/01 04:53:01;;;;;;;120.47;43.08;;;;;;;;;;4957655;28;20234;-44
2022/11/01 04:55:29;;;;;;;147.38;56.13;;;;;;;;;;4957533;29;20216;-43
2022/11/01 04:57:56;;;;;;;197.90;57.92;;;;;;;;;;4957508;29;20669;-43
2022/11/01 05:00:24;;;;;;;138.90;42.53;;;;;;;;;;4957676;29;20203;-43
2022/11/01 05:02:59;;;;;;;182.15;48.45;;;;;;;;;;4957425;29;20208;-42
2022/11/01 05:05:27;;;;;;;177.05;60.40;;;;;;;;;;4957711;29;20197;-44
2022/11/01 05:08:09;;;;;;;181.27;52.03;;;;;;;;;;4957316;29;20701;-44
2022/11/01 05:10:38;;;;;;;253.70;89.15;;;;;;;;;;4957286;29;20634;-43
2022/11/01 05:13:06;;;;;;;416.15;128.93;;;;;;;;;;4957305;28;20231;-44
2022/11/01 05:15:33;;;;;;;203.18;54.05;;;;;;;;;;4957172;29;20203;-42
2022/11/01 05:18:09;;;;;;;262.42;97.35;;;;;;;;;;4957334;29;20223;-42
2022/11/01 05:20:36;;;;;;;337.13;123.57;;;;;;;;;;4957140;28;20203;-42
2022/11/01 05:23:04;;;;;;;337.25;111.72;;;;;;;;;;4957017;29;20219;-42
2022/11/01 05:25:32;;;;;;;149.73;59.20;;;;;;;;;;4957014;29;20219;-45
2022/11/01 05:28:10;;;;;;;134.60;53.35;;;;;;;;;;4957149;29;20218;-42
2022/11/01 05:30:37;;;;;;;74.47;25.23;;;;;;;;;;4957361;29;20204;-43
2022/11/01 05:33:05;;;;;;;123.63;31.17;;;;;;;;;;4956807;29;20290;-44
2022/11/01 05:35:33;;;;;;;76.75;23.73;;;;;;;;;;4956313;28;20204;-44
2022/11/01 05:38:02;;;;;;;124.05;27.30;;;;;;;;;;4956838;29;20207;-42
2022/11/01 05:40:30;;;;;;;84.78;26.15;;;;;;;;;;4956776;28;20531;-42
2022/11/01 05:42:57;;;;;;;93.85;29.35;;;;;;;;;;4957042;29;20594;-43
2022/11/01 05:45:24;;;;;;;106.85;27.58;;;;;;;;;;4956699;29;20622;-43
2022/11/01 05:47:51;;;;;;;94.78;25.05;;;;;;;;;;4923516;28;20332;-42
2022/11/01 05:50:18;;;;;;;89.72;25.90;;;;;;;;;;4956636;29;20728;-42
2022/11/01 05:52:45;;;;;;;88.30;26.67;;;;;;;;;;4957419;28;20267;-46
2022/11/01 05:55:12;;;;;;;141.45;28.75;;;;;;;;;;4958926;28;20701;-43
2022/11/01 05:57:39;;;;;;;81.30;25.30;;;;;;;;;;4958830;28;20205;-45
2022/11/01 06:00:07;;;;;;;131.48;25.42;;;;;;;;;;4955989;28;20263;-45
2022/11/01 06:02:38;;;;;;;90.95;25.67;;;;;;;;;;4954718;29;20627;-44
2022/11/01 06:05:05;;;;;;;100.22;26.60;;;;;;;;;;4956881;29;20273;-44
2022/11/01 06:07:35;;;;;;;128.07;32.42;;;;;;;;;;4956561;28;20547;-50
2022/11/01 06:10:03;;;;;;;140.02;31.67;;;;;;;;;;4956694;28;20207;-44
2022/11/01 06:12:30;;;;;;;96.97;28.70;;;;;;;;;;4956659;29;20231;-44
2022/11/01 06:14:57;;;;;;;110.68;32.63;;;;;;;;;;4956168;29;20231;-44
2022/11/01 06:17:24;;;;;;;122.80;39.33;;;;;;;;;;4956415;29;20646;-44
2022/11/01 06:19:51;;;;;;;133.85;29.77;;;;;;;;;;4956430;29;20199;-43
2022/11/01 06:22:18;;;;;;;137.07;32.88;;;;;;;;;;4955923;28;20210;-45
2022/11/01 06:24:45;;;;;;;130.73;40.17;;;;;;;;;;4956057;29;20195;-44
2022/11/01 06:27:12;;;;;;;115.35;32.95;;;;;;;;;;4953214;29;20262;-44
2022/11/01 06:29:39;;;;;;;110.50;31.77;;;;;;;;;;4949288;28;20627;-43
2022/11/01 06:32:06;;;;;;;113.22;29.45;;;;;;;;;;4955905;29;20239;-43
2022/11/01 06:34:33;;;;;;;108.72;27.70;;;;;;;;;;4955660;28;20224;-44
2022/11/01 06:37:01;;;;;;;107.95;28.75;;;;;;;;;;4955030;29;20211;-46
2022/11/01 06:39:28;;;;;;;108.55;28.17;;;;;;;;;;4955112;28;20257;-43
2022/11/01 06:41:55;;;;;;;123.45;32.40;;;;;;;;;;4955360;28;20546;-44
2022/11/01 06:44:22;;;;;;;115.93;30.63;;;;;;;;;;4954768;28;20238;-46
2022/11/01 06:46:49;;;;;;;119.38;30.25;;;;;;;;;;4955919;28;20662;-46
2022/11/01 06:49:16;;;;;;;106.20;30.15;;;;;;;;;;4958922;28;20250;-44
2022/11/01 06:51:46;;;;;;;115.93;30.42;;;;;;;;;;4958827;29;20621;-43
2022/11/01 06:54:13;;;;;;;155.68;38.33;;;;;;;;;;4959219;28;20501;-45
2022/11/01 06:56:40;;;;;;;146.77;46.70;;;;;;;;;;4942202;28;20237;-44
2022/11/01 06:59:07;;;;;;;156.35;52.70;;;;;;;;;;4958713;28;20308;-45
2022/11/01 07:01:34;;;;;;;140.50;39.67;;;;;;;;;;4959522;29;20234;-44
2022/11/01 07:04:02;;;;;;;149.45;48.45;;;;;;;;;;4958984;28;20297;-45
2022/11/01 07:06:29;;;;;;;277.25;122.30;;;;;;;;;;4959418;29;20678;-41
2022/11/01 07:09:00;;;;;;;469.33;257.85;;;;;;;;;;4959599;29;20227;-43
2022/11/01 07:11:27;;;;;;;487.90;222.65;;;;;;;;;;4959248;29;20674;-43
2022/11/01 07:13:58;;;;;;;672.00;456.23;;;;;;;;;;4968067;28;20261;-46
2022/11/01 07:16:25;;;;;;;518.22;309.20;;;;;;;;;;4978468;28;20234;-43
2022/11/01 07:18:52;;;;;;;349.58;172.18;;;;;;;;;;4978122;28;20584;-44
2022/11/01 07:21:20;;;;;;;333.98;175.32;;;;;;;;;;4978582;28;20673;-43
2022/11/01 07:23:47;;;;;;;439.85;274.92;;;;;;;;;;4977963;28;20289;-43
2022/11/01 07:26:14;;;;;;;215.45;91.20;;;;;;;;;;4977529;28;20608;-44
2022/11/01 07:28:41;;;;;;;275.30;135.30;;;;;;;;;;4957077;29;20296;-45
2022/11/01 07:31:08;;;;;;;187.18;79.25;;;;;;;;;;4957397;28;20245;-46
2022/11/01 07:33:35;;;;;;;111.40;38.58;;;;;;;;;;4957964;28;20540;-47
2022/11/01 07:36:03;;;;;;;135.43;56.33;;;;;;;;;;4958481;28;20242;-48
2022/11/01 07:38:31;;;;;;;119.35;42.67;;;;;;;;;;4958580;28;20255;-46
2022/11/01 07:40:58;;;;;;;201.43;90.82;;;;;;;;;;4957792;28;20541;-46
2022/11/01 07:43:25;;;;;;;263.75;138.25;;;;;;;;;;4965992;28;20233;-46
2022/11/01 07:45:52;;;;;;;260.63;151.13;;;;;;;;;;4957894;28;20753;-44
2022/11/01 07:48:19;;;;;;;286.50;189.15;;;;;;;;;;4958420;28;20227;-45
2022/11/01 07:50:46;;;;;;;428.33;301.45;;;;;;;;;;4958147;28;20238;-44
2022/11/01 07:53:18;;;;;;;201.52;113.30;;;;;;;;;;4958314;28;20301;-46
2022/11/01 07:55:45;;;;;;;185.40;97.57;;;;;;;;;;4957453;28;20278;-46
2022/11/01 07:58:13;;;;;;;255.05;143.05;;;;;;;;;;4956269;28;20219;-46
2022/11/01 08:00:41;;;;;;;152.18;71.97;;;;;;;;;;4956743;28;20311;-46
2022/11/01 08:03:14;;;;;;;127.18;51.83;;;;;;;;;;4959441;28;20722;-44
2022/11/01 08:05:42;;;;;;;170.57;79.80;;;;;;;;;;4957457;28;20230;-44
2022/11/01 08:08:09;;;;;;;246.68;118.15;;;;;;;;;;4956631;28;20224;-46
2022/11/01 08:13:40;;;;;;;124.55;45.83;;;;;;;;;;3347828;23;20915;-44
2022/11/01 08:16:08;;;;;;;186.27;91.90;;;;;;;;;;4920246;29;20248;-47
2022/11/01 08:18:35;;;;;;;207.57;100.63;;;;;;;;;;4918959;29;20348;-47
2022/11/01 08:21:04;;;;;;;201.05;103.43;;;;;;;;;;4919704;29;20233;-45
2022/11/01 08:23:31;;;;;;;188.82;106.13;;;;;;;;;;4916312;29;20220;-44
2022/11/01 08:25:58;;;;;;;85.65;36.08;;;;;;;;;;4919315;29;20262;-47
2022/11/01 08:28:28;;;;;;;86.40;42.97;;;;;;;;;;4918530;29;20686;-46
2022/11/01 08:30:55;;;;;;;126.88;67.53;;;;;;;;;;4919599;29;20271;-44
2022/11/01 08:33:22;;;;;;;79.93;31.88;;;;;;;;;;4919246;29;20248;-44
2022/11/01 08:35:49;;;;;;;76.43;33.88;;;;;;;;;;4919375;29;20232;-44
2022/11/01 08:38:17;;;;;;;76.25;34.05;;;;;;;;;;4919442;29;20289;-44
2022/11/01 08:40:44;;;;;;;192.50;118.75;;;;;;;;;;4919281;29;20236;-44
2022/11/01 08:43:11;;;;;;;106.47;55.75;;;;;;;;;;4918752;29;20238;-43
2022/11/01 08:45:39;;;;;;;324.70;214.82;;;;;;;;;;4919899;29;20229;-43
2022/11/01 08:48:07;;;;;;;188.32;126.65;;;;;;;;;;4919806;29;20205;-44
2022/11/01 08:50:35;;;;;;;112.90;70.63;;;;;;;;;;4919886;29;20216;-44
2022/11/01 08:53:07;;;;;;;324.52;254.70;;;;;;;;;;4919956;29;20233;-45
2022/11/01 08:55:35;;;;;;;403.15;308.73;;;;;;;;;;4919928;29;20204;-44
2022/11/01 08:58:04;;;;;;;147.90;107.40;;;;;;;;;;4919875;29;20589;-43
2022/11/01 09:00:32;;;;;;;135.88;82.88;;;;;;;;;;4919899;29;20201;-44
2022/11/01 09:02:59;;;;;;;180.73;122.22;;;;;;;;;;4919815;29;20217;-43
2022/11/01 09:05:30;;;;;;;135.48;86.22;;;;;;;;;;4919596;29;20639;-44
2022/11/01 09:07:58;;;;;;;69.22;32.70;;;;;;;;;;4919821;29;20531;-44
2022/11/01 09:10:28;;;;;;;136.35;90.40;;;;;;;;;;4919551;29;20209;-44
2022/11/01 09:12:55;;;;;;;257.58;194.27;;;;;;;;;;4920013;29;20252;-44
2022/11/01 09:15:23;;;;;;;449.33;370.30;;;;;;;;;;4919428;29;20558;-43
2022/11/01 09:17:50;;;;;;;240.98;188.95;;;;;;;;;;4919163;29;20213;-44
2022/11/01 09:20:18;;;;;;;94.15;62.10;;;;;;;;;;4919555;29;20214;-44
2022/11/01 09:22:49;;;;;;;87.60;57.65;;;;;;;;;;4919390;29;20239;-44
2022/11/01 09:25:16;;;;;;;61.63;32.08;;;;;;;;;;4919217;29;20211;-44
2022/11/01 09:27:43;;;;;;;260.77;192.20;;;;;;;;;;4919244;29;20589;-43
2022/11/01 09:30:10;;;;;;;152.38;101.70;;;;;;;;;;4919292;29;20227;-44
2022/11/01 09:32:37;;;;;;;115.70;77.18;;;;;;;;;;4919132;29;20209;-44
2022/11/01 09:35:05;;;;;;;67.50;33.55;;;;;;;;;;4919061;29;20538;-44
2022/11/01 09:37:32;;;;;;;62.58;33.15;;;;;;;;;;4919186;29;20204;-44
2022/11/01 09:39:59;;;;;;;85.25;49.65;;;;;;;;;;4919581;29;20283;-44
2022/11/01 09:42:31;;;;;;;57.42;32.70;;;;;;;;;;4919180;29;20208;-45
2022/11/01 09:45:07;;;;;;;78.43;41.55;;;;;;;;;;4903148;29;20211;-44
2022/11/01 09:47:34;;;;;;;82.80;42.95;;;;;;;;;;4902412;29;20700;-44
2022/11/01 09:50:14;;;;;;;96.78;51.35;;;;;;;;;;4919043;29;20208;-44
2022/11/01 09:52:41;;;;;;;60.28;32.22;;;;;;;;;;4902663;29;20220;-44
2022/11/01 09:55:15;;;;;;;60.22;29.23;;;;;;;;;;4919104;29;20209;-44
2022/11/01 09:57:45;;;;;;;63.28;34.03;;;;;;;;;;4902505;29;20208;-44
2022/11/01 10:00:12;;;;;;;49.78;28.00;;;;;;;;;;4902260;29;20215;-45
2022/11/01 10:02:39;;;;;;;48.78;27.23;;;;;;;;;;4902556;29;20576;-44
2022/11/01 10:05:29;;;;;;;54.42;28.17;;;;;;;;;;4917454;29;20229;-44
2022/11/01 10:08:23;;;;;;;54.45;29.08;;;;;;;;;;4910739;29;20240;-45
2022/11/01 10:11:12;;;;;;;54.00;30.52;;;;;;;;;;4899087;29;20630;-45
2022/11/01 10:13:48;;;;;;;45.25;24.73;;;;;;;;;;4896908;29;20667;-45
2022/11/01 10:16:27;;;;;;;42.08;23.10;;;;;;;;;;4921420;29;20227;-46
2022/11/01 10:19:20;;;;;;;39.67;22.88;;;;;;;;;;4917633;29;20232;-47
2022/11/01 10:21:50;;;;;;;43.05;25.00;;;;;;;;;;4916763;29;20232;-46
2022/11/01 10:24:35;;;;;;;43.67;25.23;;;;;;;;;;4916302;29;20600;-45
2022/11/01 10:27:22;;;;;;;50.22;28.65;;;;;;;;;;4918035;29;20220;-45
2022/11/01 10:30:12;;;;;;;41.70;24.30;;;;;;;;;;4916888;29;20232;-46
2022/11/01 10:32:46;;;;;;;64.80;39.58;;;;;;;;;;4899292;29;20218;-46
2022/11/01 10:35:20;;;;;;;77.55;50.60;;;;;;;;;;4917490;29;20228;-44
2022/11/01 10:37:59;;;;;;;60.53;35.83;;;;;;;;;;4900445;29;20310;-43
2022/11/01 10:41:00;;;;;;;46.38;26.23;;;;;;;;;;4903890;29;20310;-42
2022/11/01 10:43:27;;;;;;;52.33;28.30;;;;;;;;;;4917624;29;20575;-44
2022/11/01 10:45:55;;;;;;;49.78;30.52;;;;;;;;;;4917472;29;20320;-45
2022/11/01 10:48:22;;;;;;;94.47;71.32;;;;;;;;;;4917965;29;20292;-43
2022/11/01 10:50:50;;;;;;;64.57;41.10;;;;;;;;;;4917168;29;20258;-45
2022/11/01 10:53:18;;;;;;;80.75;59.17;;;;;;;;;;4916597;29;20621;-44
2022/11/01 10:55:49;;;;;;;67.47;44.03;;;;;;;;;;4904867;29;20617;-44
2022/11/01 10:58:40;;;;;;;67.88;46.55;;;;;;;;;;4901388;29;20323;-44
2022/11/01 11:01:10;;;;;;;60.72;35.58;;;;;;;;;;4917342;29;20225;-44
2022/11/01 11:03:39;;;;;;;64.80;41.70;;;;;;;;;;4917467;29;20259;-46
2022/11/01 11:06:12;;;;;;;57.15;34.50;;;;;;;;;;4919528;29;20224;-46
2022/11/01 11:08:41;;;;;;;53.58;30.42;;;;;;;;;;4919151;29;20663;-45
2022/11/01 11:11:14;;;;;;;53.58;33.90;;;;;;;;;;4936106;29;20674;-45
2022/11/01 11:13:44;;;;;;;59.33;38.53;;;;;;;;;;4935773;29;20247;-44
2022/11/01 11:16:29;;;;;;;61.58;41.22;;;;;;;;;;4919814;29;20242;-45
2022/11/01 11:19:20;;;;;;;43.58;24.77;;;;;;;;;;4918680;29;20624;-47
2022/11/01 11:21:49;;;;;;;58.33;37.50;;;;;;;;;;4935275;29;20228;-45
2022/11/01 11:24:18;;;;;;;61.88;43.00;;;;;;;;;;4921615;29;20300;-45
2022/11/01 11:26:48;;;;;;;44.95;27.23;;;;;;;;;;4916302;29;20296;-45
2022/11/01 11:29:35;;;;;;;37.33;21.55;;;;;;;;;;4901428;29;20232;-45
2022/11/01 11:32:07;;;;;;;35.30;20.98;;;;;;;;;;4916833;29;20228;-44
2022/11/01 11:34:36;;;;;;;36.55;20.50;;;;;;;;;;4918555;29;20240;-46
2022/11/01 11:37:05;;;;;;;41.00;23.25;;;;;;;;;;4915258;29;20552;-46
2022/11/01 11:39:36;;;;;;;43.00;25.95;;;;;;;;;;4904046;29;20225;-47
2022/11/01 11:42:24;;;;;;;44.00;23.13;;;;;;;;;;4920253;29;20297;-45
2022/11/01 11:44:55;;;;;;;41.83;23.88;;;;;;;;;;4933859;29;20239;-46
2022/11/01 11:47:26;;;;;;;43.63;24.80;;;;;;;;;;4909830;29;20229;-44
2022/11/01 11:49:57;;;;;;;45.67;24.90;;;;;;;;;;4919216;29;20252;-45
2022/11/01 11:52:30;;;;;;;48.55;30.52;;;;;;;;;;4918360;29;20623;-44
2022/11/01 11:55:05;;;;;;;42.58;24.50;;;;;;;;;;4919308;29;20236;-44
2022/11/01 11:57:33;;;;;;;47.03;28.27;;;;;;;;;;4920103;29;20233;-47
2022/11/01 12:00:04;;;;;;;63.47;40.88;;;;;;;;;;4920077;29;20261;-46
2022/11/01 12:02:39;;;;;;;63.10;42.20;;;;;;;;;;4919809;29;20291;-46
2022/11/01 12:05:10;;;;;;;47.83;30.17;;;;;;;;;;4903840;29;20239;-45
2022/11/01 12:07:45;;;;;;;44.83;24.02;;;;;;;;;;4903489;29;20244;-47
2022/11/01 12:10:38;;;;;;;56.03;40.38;;;;;;;;;;4902194;29;20295;-47
2022/11/01 12:13:26;;;;;;;219.10;194.32;;;;;;;;;;4901607;29;20634;-47
2022/11/01 12:16:15;;;;;;;64.53;48.13;;;;;;;;;;4899442;29;20217;-46
2022/11/01 12:18:56;;;;;;;103.15;88.28;;;;;;;;;;4917106;29;20231;-45
2022/11/01 12:21:35;;;;;;;62.38;46.45;;;;;;;;;;4916846;29;20615;-47
2022/11/01 12:24:17;;;;;;;72.53;54.47;;;;;;;;;;4900635;29;20229;-46
2022/11/01 12:26:44;;;;;;;54.38;33.50;;;;;;;;;;4918799;29;20236;-47
2022/11/01 12:29:22;;;;;;;44.75;26.70;;;;;;;;;;4919749;29;20251;-46
2022/11/01 12:31:50;;;;;;;43.03;23.05;;;;;;;;;;4918931;29;20280;-48
2022/11/01 12:34:25;;;;;;;59.40;39.20;;;;;;;;;;4919310;29;20695;-49
2022/11/01 12:37:06;;;;;;;66.03;49.55;;;;;;;;;;4918506;29;20287;-46
2022/11/01 12:39:44;;;;;;;97.85;83.72;;;;;;;;;;4902668;29;20683;-51
2022/11/01 12:42:18;;;;;;;48.45;27.35;;;;;;;;;;4919093;29;20240;-49
2022/11/01 12:44:47;;;;;;;51.28;33.85;;;;;;;;;;4901885;29;20243;-47
2022/11/01 12:47:47;;;;;;;55.90;36.92;;;;;;;;;;4904759;29;20234;-48
2022/11/01 12:50:25;;;;;;;44.15;26.48;;;;;;;;;;4913999;29;20225;-47
2022/11/01 12:52:56;;;;;;;56.17;39.70;;;;;;;;;;4915086;29;20259;-49
2022/11/01 12:55:34;;;;;;;48.15;33.25;;;;;;;;;;4901454;29;20288;-48
2022/11/01 12:58:03;;;;;;;46.80;31.55;;;;;;;;;;4917801;29;20238;-48
2022/11/01 13:00:49;;;;;;;121.63;98.68;;;;;;;;;;4915782;29;20229;-48
2022/11/01 13:03:50;;;;;;;101.05;79.85;;;;;;;;;;4915862;29;20236;-48
2022/11/01 13:06:32;;;;;;;51.53;36.47;;;;;;;;;;4916101;29;20219;-49
2022/11/01 13:09:17;;;;;;;62.88;46.80;;;;;;;;;;4916568;29;20224;-46
2022/11/01 13:12:03;;;;;;;56.35;42.78;;;;;;;;;;4903965;29;20284;-53
2022/11/01 13:15:04;;;;;;;77.80;63.25;;;;;;;;;;4914728;29;20255;-45
2022/11/01 13:18:01;;;;;;;50.03;37.00;;;;;;;;;;4919103;29;20224;-49
2022/11/01 13:20:38;;;;;;;46.65;32.03;;;;;;;;;;4901552;29;20239;-47
2022/11/01 13:23:18;;;;;;;58.50;42.08;;;;;;;;;;4902254;29;20567;-47
2022/11/01 13:26:25;;;;;;;60.83;46.13;;;;;;;;;;4910308;29;20271;-50
2022/11/01 13:29:16;;;;;;;43.67;29.02;;;;;;;;;;4883037;29;20616;-47
2022/11/01 13:31:52;;;;;;;41.30;25.90;;;;;;;;;;4899443;29;20681;-46
2022/11/01 13:34:41;;;;;;;38.95;25.08;;;;;;;;;;4899350;29;20241;-48
2022/11/01 13:37:17;;;;;;;39.05;23.27;;;;;;;;;;4887685;29;20231;-46
2022/11/01 13:39:53;;;;;;;40.22;23.45;;;;;;;;;;4916775;29;20242;-46
2022/11/01 13:42:23;;;;;;;37.85;23.98;;;;;;;;;;4901916;29;20256;-47
2022/11/01 13:45:13;;;;;;;53.65;35.25;;;;;;;;;;4901428;29;20237;-47
2022/11/01 13:47:52;;;;;;;65.65;45.67;;;;;;;;;;4918345;29;20241;-49
2022/11/01 13:50:28;;;;;;;68.07;48.15;;;;;;;;;;4917763;29;20233;-50
2022/11/01 13:53:19;;;;;;;67.00;46.63;;;;;;;;;;4916865;29;20240;-49
2022/11/01 13:55:46;;;;;;;52.33;33.85;;;;;;;;;;4917538;29;20244;-48
2022/11/01 13:58:17;;;;;;;48.35;28.58;;;;;;;;;;4917985;29;20228;-49
2022/11/01 14:00:47;;;;;;;45.92;24.33;;;;;;;;;;4917619;29;20703;-48
2022/11/01 14:03:29;;;;;;;39.33;22.70;;;;;;;;;;4902003;29;20233;-50
2022/11/01 14:06:21;;;;;;;79.93;57.50;;;;;;;;;;4917313;29;20228;-46
2022/11/01 14:08:50;;;;;;;56.60;37.97;;;;;;;;;;4918139;29;20229;-49
2022/11/01 14:11:56;;;;;;;45.47;26.25;;;;;;;;;;4917790;29;20235;-48
2022/11/01 14:14:29;;;;;;;43.35;24.27;;;;;;;;;;4878278;29;20245;-46
2022/11/01 14:17:14;;;;;;;54.63;35.78;;;;;;;;;;4912421;29;20288;-47
2022/11/01 14:19:42;;;;;;;72.88;55.63;;;;;;;;;;4917434;29;20682;-49
2022/11/01 14:22:23;;;;;;;63.00;41.80;;;;;;;;;;4917676;29;20235;-45
2022/11/01 14:24:54;;;;;;;42.65;26.17;;;;;;;;;;4917477;29;20263;-48
2022/11/01 14:27:22;;;;;;;46.83;26.85;;;;;;;;;;4917644;29;20605;-46
2022/11/01 14:29:50;;;;;;;48.28;25.83;;;;;;;;;;4917703;29;20232;-46
2022/11/01 14:32:18;;;;;;;47.92;24.80;;;;;;;;;;4917909;29;20260;-45
2022/11/01 14:34:55;;;;;;;44.05;25.10;;;;;;;;;;4915632;29;20260;-44
2022/11/01 14:37:25;;;;;;;57.03;35.95;;;;;;;;;;4916952;29;20620;-46
2022/11/01 14:39:57;;;;;;;47.55;27.63;;;;;;;;;;4908231;29;20347;-45
2022/11/01 14:42:37;;;;;;;43.90;28.30;;;;;;;;;;4918467;29;20204;-46
2022/11/01 14:45:26;;;;;;;57.75;36.45;;;;;;;;;;4918832;29;20204;-45
2022/11/01 14:48:09;;;;;;;66.15;42.20;;;;;;;;;;4916936;29;20205;-45